Stations météo

Publicité
Brocken, Allemagne (10453): Température de l'air & dewpoint: 10.01.2018 09:00:00 - 16.01.2018 09:00:00 (CET)Brocken, Allemagne (10453): Température de l'air 5cm: 10.01.2018 09:00:00 - 16.01.2018 09:00:00 (CET)Brocken, Allemagne (10453): Vitesse du vent & gusts: 10.01.2018 09:00:00 - 16.01.2018 09:00:00 (CET)Brocken, Allemagne (10453): Direction du vent: 10.01.2018 09:00:00 - 16.01.2018 09:00:00 (CET)Brocken, Allemagne (10453): visibility: 10.01.2018 09:00:00 - 16.01.2018 09:00:00 (CET)Brocken, Allemagne (10453): Ensoleillement: 10.01.2018 09:00:00 - 16.01.2018 09:00:00 (CET)
Date & Time tt [°C] td [°C] tt 5cm [°C] ff [km/h] ff [knt] fx [km/h] fx [knt] dd vv [km] sd [min]
16.01.2018 09:00:00 - - - - - - - - - -
16.01.2018 08:00:00 -2,2 -2,3 -2,1 60 32 90 48 SW - 0
16.01.2018 07:00:00 -2,2 -2,4 -2,1 67 36 98 53 WSW 0,1 0
16.01.2018 06:00:00 -2,1 -2,3 -2,1 80 43 104 56 WSW 0,1 0
16.01.2018 05:00:00 -1,6 -1,7 -1,7 73 40 103 55 WSW - 0
16.01.2018 04:00:00 -1,7 -1,8 -3,0 82 44 102 55 WSW - 0
16.01.2018 03:00:00 -2,2 -2,3 -3,0 85 46 101 55 SW - 0
16.01.2018 02:00:00 -2,6 -2,8 -3,0 84 45 108 58 SW - 0
16.01.2018 01:00:00 -2,9 -3,2 -3,0 90 48 119 64 SW - 0
16.01.2018 00:00:00 -2,8 -3,0 -3,0 100 54 124 67 SSW - 0
15.01.2018 23:00:00 -2,7 -2,9 -3,0 93 50 125 68 SSW - 0
15.01.2018 22:00:00 -3,0 -3,2 -3,1 87 47 119 65 SSW - 0
15.01.2018 21:00:00 -3,6 -3,9 -3,5 78 42 104 56 SSW - 0
15.01.2018 20:00:00 -3,6 -3,9 -3,6 82 44 108 59 SSW - 0
15.01.2018 19:00:00 -3,5 -3,7 -3,4 85 46 111 60 SSW - 0
15.01.2018 18:00:00 -3,6 -3,9 -3,5 91 49 113 61 SSW - 0
15.01.2018 17:00:00 -3,6 -3,9 -3,4 94 51 111 60 SSW - 0
15.01.2018 16:00:00 -4,0 -4,3 -3,8 85 46 103 56 SSW - 0
15.01.2018 15:00:00 -4,2 -4,5 -4,0 73 40 91 49 SSW - 0
15.01.2018 14:00:00 -4,5 -4,8 -4,2 74 40 90 49 SSW - 0
15.01.2018 13:00:00 -4,9 -5,3 -4,8 77 42 92 50 SSW - 0
15.01.2018 12:00:00 -4,9 -5,3 -4,9 81 44 98 53 SW - 0
15.01.2018 11:00:00 -4,8 -5,2 -4,9 74 40 96 52 SW - 0
15.01.2018 10:00:00 -5,2 -5,6 -5,1 75 41 94 51 SW - 0
15.01.2018 09:00:00 -6,4 -7,0 -6,3 76 41 87 47 SW 0,1 0
15.01.2018 08:00:00 -6,6 -7,3 -6,7 70 38 81 44 SSW 0,1 0
15.01.2018 07:00:00 -6,7 -7,5 -6,9 66 36 78 42 SSW 20 0
15.01.2018 06:00:00 -6,9 -7,6 -7,3 59 32 71 38 SSW 25 0
15.01.2018 05:00:00 -7,3 -8,0 -7,5 56 30 67 36 SSW 0,1 0
15.01.2018 04:00:00 -7,3 -8,0 -7,4 49 27 65 35 SSW 0,1 0
15.01.2018 03:00:00 -7,2 -7,8 -7,2 53 28 76 41 SSW 0,1 0
15.01.2018 02:00:00 -7,2 -7,8 -7,0 66 36 80 43 SSW 0,1 0
15.01.2018 01:00:00 -7,2 -7,8 -7,0 68 37 84 46 SSW 0,1 0
15.01.2018 00:00:00 -7,2 -7,8 -7,0 70 38 86 47 S 0,1 0
14.01.2018 23:00:00 -7,2 -7,8 -7,0 70 38 83 45 S 0,1 0
14.01.2018 22:00:00 -7,3 -7,9 -7,1 65 35 85 46 S 0,1 0
14.01.2018 21:00:00 -7,3 -7,9 -7,2 71 38 80 43 S - 0
14.01.2018 20:00:00 -7,3 -8,0 -7,1 68 37 78 42 S - 0
14.01.2018 19:00:00 -7,0 -7,6 -6,8 60 32 74 40 S - 0
14.01.2018 18:00:00 -7,0 -7,6 -6,9 58 31 69 38 S - 0
14.01.2018 17:00:00 -6,9 -7,5 -6,8 54 29 64 35 S - 0
14.01.2018 16:00:00 -6,5 -7,0 -6,3 46 25 54 29 S 0,1 0
14.01.2018 15:00:00 -6,2 -6,8 -5,9 43 23 59 32 S 0,1 1
14.01.2018 14:00:00 -6,3 -6,9 -5,7 49 26 63 34 S 0,1 0
14.01.2018 13:00:00 -6,5 -7,1 -5,9 54 29 64 35 S 0,1 0
14.01.2018 12:00:00 -6,8 -7,3 -6,2 54 29 71 38 S - 0
14.01.2018 11:00:00 -7,3 -7,8 -6,9 57 31 73 39 S 0,1 0
14.01.2018 10:00:00 -7,4 -8,0 -7,1 61 33 73 40 S 0,1 0
14.01.2018 09:00:00 -7,4 -8,0 -7,3 65 35 79 42 S 0,1 0
14.01.2018 08:00:00 -7,5 -8,1 -7,4 66 36 77 42 S 0,1 0
14.01.2018 07:00:00 -7,8 -8,4 -7,7 68 37 80 43 S 0,1 0
14.01.2018 06:00:00 -8,3 -9,0 -8,1 65 35 76 41 S 0,1 0
14.01.2018 05:00:00 -8,9 -9,6 -8,6 55 30 68 37 S 0,1 0
14.01.2018 04:00:00 -9,2 -10,0 -9,0 51 27 61 33 S - 0
14.01.2018 03:00:00 -9,2 -9,9 -8,9 36 20 51 27 SSE 0,1 0
14.01.2018 02:00:00 -8,9 -9,5 -8,7 38 20 53 28 S 0,1 0
14.01.2018 01:00:00 -8,9 -9,6 -8,7 41 22 54 29 SSE 0,1 0
14.01.2018 00:00:00 -8,3 -9,0 -8,1 41 22 55 30 SSE - 0
13.01.2018 23:00:00 -7,4 -8,1 -7,2 40 22 54 29 SE - 0
13.01.2018 22:00:00 -7,2 -7,8 -6,9 41 22 52 28 SE - 0
13.01.2018 21:00:00 -6,9 -7,5 -6,7 40 22 50 27 ESE - 0
13.01.2018 20:00:00 -7,3 -8,0 -6,9 38 21 49 26 ESE - 0
13.01.2018 19:00:00 -6,9 -7,4 -6,6 32 17 43 23 ESE - 0
13.01.2018 18:00:00 -6,3 -6,8 -6,1 34 18 40 21 ESE - 0
13.01.2018 17:00:00 -5,4 -5,8 -5,3 26 14 36 19 ESE - 0
13.01.2018 16:00:00 -4,9 -5,3 -4,5 27 14 34 18 SE 0,1 0
13.01.2018 15:00:00 -4,2 -4,5 -3,8 26 14 33 18 ESE 0,1 0
13.01.2018 14:00:00 -3,9 -4,2 -3,4 24 13 35 19 SE 0,1 0
13.01.2018 13:00:00 -3,9 -4,2 -3,4 27 15 36 19 SE - 0
13.01.2018 12:00:00 -3,7 -4,0 -3,4 25 14 35 19 SE - 0
13.01.2018 11:00:00 -3,6 -3,8 -3,2 27 15 35 19 SSE 0,1 0
13.01.2018 10:00:00 -3,6 -3,9 -3,3 27 15 34 18 SE 0,1 0
13.01.2018 09:00:00 -3,1 -3,3 -2,9 24 13 32 17 SSE 0,1 0
13.01.2018 08:00:00 -2,7 -3,0 -2,8 24 13 29 16 SSE 0,1 0
13.01.2018 07:00:00 -2,5 -2,6 -2,4 25 13 30 16 SSE - 0
13.01.2018 06:00:00 -2,8 -3,0 -2,7 23 12 30 16 S - 0
13.01.2018 05:00:00 -2,5 -2,6 -2,4 26 14 34 18 S - 0
13.01.2018 04:00:00 -2,5 -2,6 -2,3 25 14 31 17 S - 0
13.01.2018 03:00:00 -2,2 -2,3 -2,1 26 14 35 19 S - 0
13.01.2018 02:00:00 -2,0 -2,0 -1,8 30 16 35 19 S - 0
13.01.2018 01:00:00 -2,0 -2,1 -1,8 29 16 35 19 SSE - 0
13.01.2018 00:00:00 -2,0 -2,0 -1,8 27 15 35 19 SSE - 0
12.01.2018 23:00:00 -2,0 -2,0 -1,8 25 14 31 17 SE - 0
12.01.2018 22:00:00 -1,7 -1,7 -1,5 23 12 30 16 SE - 0
12.01.2018 21:00:00 -1,8 -1,8 -1,5 23 13 29 16 SSE - 0
12.01.2018 20:00:00 -1,6 -1,6 -1,4 16 8 21 12 SSE - 0
12.01.2018 19:00:00 -1,5 -1,5 -1,4 16 8 18 10 S - 0
12.01.2018 18:00:00 -1,4 -1,4 -1,3 17 9 21 11 S 0,1 0
12.01.2018 17:00:00 -1,3 -1,3 -1,2 17 9 20 11 S 0,1 0
12.01.2018 16:00:00 -1,0 -1,0 -0,8 15 8 19 10 S 0,1 0
12.01.2018 15:00:00 -1,0 -1,0 -0,8 14 8 17 9 S 0,1 0
12.01.2018 14:00:00 -0,9 -0,9 -0,6 12 7 15 8 SSW 0,1 0
12.01.2018 13:00:00 -0,8 -0,8 -0,5 11 6 15 8 S 0,1 0
12.01.2018 12:00:00 -0,9 -0,9 -0,6 11 6 14 7 S 0,1 0
12.01.2018 11:00:00 -1,0 -1,0 -0,8 11 6 14 7 S 0,1 0
12.01.2018 10:00:00 -1,0 -1,0 -0,8 10 5 14 8 S 0,1 0
12.01.2018 09:00:00 -1,2 -1,2 -1,1 11 6 14 7 S 0,1 0
12.01.2018 08:00:00 -1,2 -1,3 -1,3 9 5 13 7 SW 0,2 0
12.01.2018 07:00:00 -1,1 -1,5 -1,4 9 5 13 7 SW 8 0
12.01.2018 06:00:00 -1,1 -1,1 -1,3 11 6 16 8 W 20 0
12.01.2018 05:00:00 -1,2 -1,3 -1,4 16 8 21 11 W 20 0
12.01.2018 04:00:00 -1,2 -1,3 -1,6 19 10 24 13 W 40 0
12.01.2018 03:00:00 -1,3 -1,6 -2,4 15 8 17 9 WSW 40 0
12.01.2018 02:00:00 -1,8 -2,0 -3,8 12 7 13 7 W 40 0
12.01.2018 01:00:00 -1,5 -1,9 -4,5 12 6 13 7 WSW 40 0
12.01.2018 00:00:00 -1,3 -1,9 -4,5 7 4 11 6 WSW 40 0
11.01.2018 23:00:00 -1,5 -1,8 -3,4 11 6 18 10 NNW 40 0
11.01.2018 22:00:00 -1,3 -1,5 -2,4 7 4 21 11 NNE 40 0
11.01.2018 21:00:00 -1,0 -1,4 -1,5 19 11 32 17 N 40 0
11.01.2018 20:00:00 -0,6 -0,6 -0,7 18 10 25 14 N - 0
11.01.2018 19:00:00 -0,6 -0,6 -0,4 17 9 20 11 N - 0
11.01.2018 18:00:00 -0,3 -0,3 -0,2 13 7 23 13 N - 0
11.01.2018 17:00:00 -0,3 -0,3 -0,2 19 10 24 13 N - 0
11.01.2018 16:00:00 -0,1 -0,1 0,0 13 7 18 10 N - 0
11.01.2018 15:00:00 0,4 0,4 0,5 8 4 10 5 N - 0
11.01.2018 14:00:00 0,7 0,7 1,1 0 0 12 6 N - 0
11.01.2018 13:00:00 0,4 0,4 0,7 7 4 11 6 S 0,2 0
11.01.2018 12:00:00 0,0 0,0 0,0 6 3 15 8 SE 0,2 0
11.01.2018 11:00:00 -0,1 -0,1 0,0 14 8 23 12 SSE 20 0
11.01.2018 10:00:00 0,0 -0,2 -0,1 18 10 22 12 SE 15 0
11.01.2018 09:00:00 -0,1 -0,2 -0,2 13 7 18 10 E 20 0
11.01.2018 08:00:00 -0,1 -0,2 -0,3 13 7 17 9 E 5 0
11.01.2018 07:00:00 -0,1 -0,3 -0,5 13 7 16 9 E 60 0
11.01.2018 06:00:00 -0,1 -0,5 -0,6 13 7 21 11 ESE 60 0
11.01.2018 05:00:00 0,0 -0,4 -0,5 16 9 24 13 S 60 0
11.01.2018 04:00:00 -0,1 -0,5 -0,5 23 12 24 13 SW 50 0
11.01.2018 03:00:00 -0,5 -0,6 -1,5 21 12 40 22 W 50 0
11.01.2018 02:00:00 -0,1 -0,1 -0,6 38 21 43 23 WSW - 0
11.01.2018 01:00:00 -0,3 -0,3 -0,6 40 22 60 33 SW - 0
11.01.2018 00:00:00 -0,4 -0,6 -0,9 55 30 64 34 SW 60 0
10.01.2018 23:00:00 -0,4 -0,4 -0,4 46 25 53 29 SSW - 0
10.01.2018 22:00:00 -0,5 -0,6 -1,0 37 20 41 22 SW - 0
10.01.2018 21:00:00 -0,4 -0,7 -1,1 37 20 42 23 SW 50 0
10.01.2018 20:00:00 -0,5 -0,6 -0,9 38 21 42 23 SW 50 0
10.01.2018 19:00:00 -0,4 -0,4 -0,4 32 17 39 21 SW - 0
10.01.2018 18:00:00 -0,5 -0,5 -0,7 32 18 45 24 WSW 0,1 0
10.01.2018 17:00:00 -0,5 -0,5 -0,3 36 19 49 26 WSW 0,1 0
10.01.2018 16:00:00 -0,6 -0,6 -0,2 37 20 46 25 WSW - 0
10.01.2018 15:00:00 -0,3 -0,3 0,0 33 18 45 25 WSW - 0
10.01.2018 14:00:00 -0,1 -0,1 0,0 42 23 64 34 SW - 0
10.01.2018 13:00:00 -0,2 -0,2 0,0 51 27 66 36 SW - 0
10.01.2018 12:00:00 -0,2 -0,2 0,0 54 29 74 40 SW - 0
10.01.2018 11:00:00 -0,2 -0,2 0,0 56 30 69 37 SSW - 0
10.01.2018 10:00:00 -0,2 -0,2 0,0 53 29 63 34 SSW - 0
10.01.2018 09:00:00 -0,2 -0,2 -0,1 50 27 61 33 SSW - 0

tt = Température de l'air
td = dewpoint
tt 5cm = Température de l'air 5cm
ff = Vitesse du vent
fx = gusts
dd = Direction du vent
vv = visibility
sd = Ensoleillement

stations d'obs. à proximité